createdAt,value
2022-12-07T00:04:21.710Z,26.07
2022-12-07T00:09:26.553Z,24.27
2022-12-07T00:14:34.189Z,22.93
2022-12-07T00:19:39.174Z,25.93
2022-12-07T00:24:44.074Z,21.53
2022-12-07T00:29:51.690Z,23.43
2022-12-07T00:34:56.637Z,18.40
2022-12-07T00:40:02.129Z,21.70
2022-12-07T00:45:11.610Z,18.60
2022-12-07T00:50:16.493Z,23.10
2022-12-07T00:55:21.521Z,18.57
2022-12-07T01:00:31.176Z,17.73
2022-12-07T01:05:36.147Z,17.53
2022-12-07T01:10:41.080Z,20.60
2022-12-07T01:15:48.921Z,18.83
2022-12-07T01:21:01.736Z,17.80
2022-12-07T01:26:08.682Z,18.77
2022-12-07T01:31:18.324Z,20.20
2022-12-07T01:36:27.080Z,19.53
2022-12-07T01:41:36.364Z,21.60
2022-12-07T01:46:47.532Z,20.60
2022-12-07T01:51:55.749Z,19.73
2022-12-07T01:57:01.733Z,22.13
2022-12-07T02:02:17.884Z,20.43
2022-12-07T02:07:23.827Z,22.57
2022-12-07T02:12:31.210Z,23.67
2022-12-07T02:17:49.682Z,18.93
2022-12-07T02:23:26.059Z,21.03
2022-12-07T02:28:37.516Z,19.00
2022-12-07T02:33:51.283Z,21.33
2022-12-07T02:39:02.002Z,17.47
2022-12-07T02:44:13.878Z,18.27
2022-12-07T02:49:22.558Z,15.97
2022-12-07T02:54:27.635Z,14.50
2022-12-07T02:59:46.455Z,15.17
2022-12-07T03:05:04.506Z,15.40
2022-12-07T03:10:18.106Z,15.70
2022-12-07T03:15:29.957Z,13.77
2022-12-07T03:20:41.042Z,17.97
2022-12-07T03:25:53.600Z,16.87
2022-12-07T03:31:07.333Z,17.53
2022-12-07T03:36:21.113Z,18.97
2022-12-07T03:41:56.828Z,18.17
2022-12-07T03:47:29.940Z,17.57
2022-12-07T03:52:47.573Z,15.80
2022-12-07T03:57:56.336Z,16.27
2022-12-07T04:03:03.993Z,15.80
2022-12-07T04:08:14.236Z,16.07
2022-12-07T04:13:19.285Z,18.87
2022-12-07T04:18:24.330Z,14.43
2022-12-07T04:23:32.057Z,17.73
2022-12-07T04:28:36.969Z,16.13
2022-12-07T04:33:42.229Z,15.83
2022-12-07T04:38:51.120Z,17.47
2022-12-07T04:43:56.856Z,17.13
2022-12-07T04:49:02.203Z,18.27
2022-12-07T04:54:10.023Z,22.20
2022-12-07T04:59:15.523Z,18.57
2022-12-07T05:04:21.387Z,16.53
2022-12-07T05:09:28.867Z,16.97
2022-12-07T05:14:33.999Z,19.40
2022-12-07T05:19:39.080Z,18.73
2022-12-07T05:24:49.557Z,16.80
2022-12-07T05:29:55.412Z,16.80
2022-12-07T05:35:01.508Z,16.20
2022-12-07T05:40:10.321Z,18.13
2022-12-07T05:45:15.250Z,13.77
2022-12-07T05:50:20.371Z,14.30
2022-12-07T05:55:41.440Z,14.23
2022-12-07T06:00:50.867Z,14.67
2022-12-07T06:05:56.810Z,13.33
2022-12-07T06:11:16.590Z,14.27
2022-12-07T06:16:21.574Z,13.30
2022-12-07T06:21:27.588Z,13.93
2022-12-07T06:26:35.291Z,11.50
2022-12-07T06:31:40.882Z,11.97
2022-12-07T06:36:46.104Z,9.77
2022-12-07T06:41:55.535Z,12.57
2022-12-07T06:47:31.798Z,10.73
2022-12-07T06:52:28.633Z,11.43
2022-12-07T06:57:36.392Z,9.67
2022-12-07T07:02:41.335Z,11.57
2022-12-07T07:08:20.064Z,11.37
2022-12-07T07:13:15.803Z,10.13
2022-12-07T07:18:20.846Z,13.27
2022-12-07T07:23:28.295Z,18.73
2022-12-07T07:28:36.092Z,13.00
2022-12-07T07:33:41.022Z,15.93
2022-12-07T07:38:45.949Z,9.97
2022-12-07T07:43:53.966Z,19.47
2022-12-07T07:48:58.866Z,14.23
2022-12-07T07:54:04.017Z,13.30
2022-12-07T07:59:13.885Z,10.90
2022-12-07T08:04:19.021Z,12.50
2022-12-07T08:09:24.071Z,16.63
2022-12-07T08:14:33.497Z,13.20
2022-12-07T08:19:38.480Z,11.23
2022-12-07T08:24:43.672Z,11.60
2022-12-07T08:29:51.152Z,13.00
2022-12-07T08:35:00.236Z,13.17
2022-12-07T08:40:06.191Z,20.77
2022-12-07T08:45:18.794Z,18.67
2022-12-07T08:50:27.516Z,22.20
2022-12-07T08:55:39.882Z,14.37
2022-12-07T09:00:51.610Z,19.07
2022-12-07T09:06:00.718Z,14.63
2022-12-07T09:11:05.971Z,15.33
2022-12-07T09:16:14.292Z,15.97
2022-12-07T09:21:19.242Z,12.77
2022-12-07T09:26:25.492Z,18.50
2022-12-07T09:31:34.312Z,22.30
2022-12-07T09:36:40.238Z,18.03
2022-12-07T09:41:49.244Z,20.23
2022-12-07T09:46:57.794Z,16.30
2022-12-07T09:52:21.835Z,15.47
2022-12-07T09:57:33.148Z,9.63
2022-12-07T10:02:44.001Z,12.37
2022-12-07T10:07:49.087Z,10.47
2022-12-07T10:13:00.452Z,9.67
2022-12-07T10:18:18.288Z,12.67
2022-12-07T10:23:23.204Z,13.57
2022-12-07T10:28:42.302Z,14.63
2022-12-07T10:33:57.439Z,11.73
2022-12-07T10:39:19.946Z,11.17
2022-12-07T10:44:26.457Z,9.37
2022-12-07T10:49:55.072Z,12.07
2022-12-07T10:55:17.575Z,11.40
2022-12-07T11:00:25.280Z,11.60
2022-12-07T11:05:45.423Z,12.90
2022-12-07T11:11:07.733Z,10.00
2022-12-07T11:16:25.305Z,8.37
2022-12-07T11:21:40.353Z,11.33
2022-12-07T11:27:03.211Z,10.60
2022-12-07T11:32:16.932Z,11.10
2022-12-07T11:37:36.532Z,13.23
2022-12-07T11:42:49.685Z,14.60
2022-12-07T11:48:02.655Z,11.23
2022-12-07T11:53:20.103Z,11.77
2022-12-07T11:58:48.566Z,13.97
2022-12-07T12:03:56.646Z,7.80
2022-12-07T12:09:41.771Z,9.73
2022-12-07T12:14:50.711Z,8.17
2022-12-07T12:20:09.532Z,10.73
2022-12-07T12:25:27.813Z,16.37
2022-12-07T12:31:08.236Z,8.33
2022-12-07T12:36:36.431Z,9.57
2022-12-07T12:42:25.511Z,11.13
2022-12-07T12:48:01.619Z,11.60
2022-12-07T12:53:37.665Z,8.60
2022-12-07T12:58:48.474Z,10.97
2022-12-07T13:04:09.539Z,10.27
2022-12-07T13:09:27.398Z,12.17
2022-12-07T13:15:21.554Z,8.63
2022-12-07T13:20:58.658Z,9.27
2022-12-07T13:26:46.143Z,10.20
2022-12-07T13:31:53.458Z,11.70
2022-12-07T13:37:05.292Z,7.37
2022-12-07T13:42:24.951Z,4.37
2022-12-07T13:47:38.999Z,4.33
2022-12-07T13:52:49.961Z,5.53
2022-12-07T13:58:06.123Z,2.93
2022-12-07T14:03:32.097Z,4.03
2022-12-07T14:08:40.976Z,3.87
2022-12-07T14:14:04.900Z,4.93
2022-12-07T14:19:48.735Z,5.57
2022-12-07T14:25:03.154Z,7.07
2022-12-07T14:30:10.651Z,7.83
2022-12-07T14:35:17.406Z,6.60
2022-12-07T14:40:27.540Z,6.70
2022-12-07T14:45:33.271Z,7.83
2022-12-07T14:56:12.880Z,8.23
2022-12-07T15:01:21.188Z,8.63
2022-12-07T15:06:26.190Z,9.20
2022-12-07T15:11:44.584Z,7.47
2022-12-07T15:17:08.435Z,8.03
2022-12-07T15:22:14.931Z,7.23
2022-12-07T15:27:22.467Z,3.93
2022-12-07T15:32:27.714Z,6.23
2022-12-07T15:37:32.963Z,12.33
2022-12-07T15:42:41.167Z,5.53
2022-12-07T15:48:26.889Z,6.23
2022-12-07T15:53:15.618Z,9.67
2022-12-07T15:58:24.222Z,16.10
2022-12-07T16:03:30.827Z,5.67
2022-12-07T16:08:37.699Z,4.40
2022-12-07T16:13:45.532Z,5.60
2022-12-07T16:18:51.034Z,4.83
2022-12-07T16:24:02.256Z,5.20
2022-12-07T16:29:10.034Z,5.70
2022-12-07T16:34:15.197Z,6.03
2022-12-07T16:39:20.253Z,9.13
2022-12-07T16:44:33.814Z,10.77
2022-12-07T16:49:39.731Z,8.33
2022-12-07T16:54:46.084Z,7.30
2022-12-07T16:59:55.549Z,10.63
2022-12-07T17:05:00.843Z,6.00
2022-12-07T17:10:08.736Z,8.07
2022-12-07T17:15:22.636Z,7.97
2022-12-07T17:20:29.648Z,7.33
2022-12-07T17:25:37.068Z,5.20
2022-12-07T17:30:44.642Z,8.73
2022-12-07T17:35:49.560Z,5.17
2022-12-07T17:40:56.627Z,7.40
2022-12-07T17:46:10.274Z,5.53
2022-12-07T17:51:27.634Z,6.13
2022-12-07T17:56:32.710Z,5.53
2022-12-07T18:01:45.881Z,6.73
2022-12-07T18:06:52.503Z,4.37
2022-12-07T18:11:59.397Z,7.13
2022-12-07T18:17:07.083Z,7.20
2022-12-07T18:22:12.209Z,5.33
2022-12-07T18:27:17.184Z,5.20
2022-12-07T18:32:25.984Z,3.43
2022-12-07T18:37:31.598Z,3.70
2022-12-07T18:42:36.904Z,5.27
2022-12-07T18:47:44.795Z,2.50
2022-12-07T18:52:50.037Z,5.50
2022-12-07T18:57:54.963Z,5.80
2022-12-07T19:03:04.080Z,5.33
2022-12-07T19:08:09.110Z,3.30
2022-12-07T19:13:14.240Z,5.07
2022-12-07T19:18:21.812Z,5.27
2022-12-07T19:23:26.825Z,6.70
2022-12-07T19:28:34.815Z,7.77
2022-12-07T19:33:43.162Z,4.60
2022-12-07T19:38:49.554Z,3.43
2022-12-07T19:43:55.007Z,4.60
2022-12-07T19:49:05.260Z,6.87
2022-12-07T19:54:11.373Z,7.40
2022-12-07T19:59:17.781Z,6.87
2022-12-07T20:04:27.586Z,6.30
2022-12-07T20:09:39.167Z,5.53
2022-12-07T20:14:44.265Z,5.33
2022-12-07T20:19:52.149Z,6.20
2022-12-07T20:24:57.474Z,7.50
2022-12-07T20:30:02.875Z,7.93
2022-12-07T20:35:13.571Z,9.90
2022-12-07T20:40:19.035Z,10.57
2022-12-07T20:45:25.646Z,7.23
2022-12-07T20:50:41.996Z,6.47
2022-12-07T20:55:48.270Z,6.40
2022-12-07T21:00:53.206Z,7.23
2022-12-07T21:06:04.614Z,7.33
2022-12-07T21:11:11.726Z,10.27
2022-12-07T21:16:18.634Z,9.60
2022-12-07T21:21:27.152Z,7.40
2022-12-07T21:26:33.860Z,6.37
2022-12-07T21:31:39.133Z,8.80
2022-12-07T21:36:46.749Z,6.93
2022-12-07T21:41:51.932Z,14.33
2022-12-07T21:46:57.124Z,9.37
2022-12-07T21:52:06.172Z,10.33
2022-12-07T21:57:11.265Z,9.50
2022-12-07T22:02:17.618Z,7.67
2022-12-07T22:07:25.445Z,9.17
2022-12-07T22:12:30.534Z,11.27
2022-12-07T22:17:35.747Z,8.43
2022-12-07T22:22:43.461Z,11.80
2022-12-07T22:27:48.516Z,12.80
2022-12-07T22:32:53.597Z,12.23
2022-12-07T22:38:01.224Z,11.10
2022-12-07T22:43:06.530Z,7.83
2022-12-07T22:48:11.869Z,6.53
2022-12-07T22:53:21.010Z,10.57
2022-12-07T22:58:26.011Z,11.20
2022-12-07T23:03:31.018Z,5.83
2022-12-07T23:08:39.420Z,8.77
2022-12-07T23:13:44.500Z,11.23
2022-12-07T23:18:49.425Z,7.90
2022-12-07T23:23:57.251Z,9.33
2022-12-07T23:29:02.191Z,8.20
2022-12-07T23:34:07.255Z,7.73
2022-12-07T23:39:15.501Z,7.47
2022-12-07T23:44:21.270Z,8.00
2022-12-07T23:49:35.249Z,9.03
2022-12-07T23:54:42.698Z,9.37
2022-12-07T23:59:47.640Z,7.10
